To NAV CANADA Home Page Login to a new session Search on AWWS site Feedback and Comments Disclaimer Vers la page française équivalente Tips FAQ What's new on the site To the Forecasts and Observations / NOTAM section To "File a Flight Plan" website Publications and other links Update of the User's profile FIC Telephone Numbers My Weather Data Folder Route Weather Data Regional Weather Data Local Weather Data To the Forecasts and Observations / NOTAM section
Request Generated 07/04/2015 at 22:25:49 UTC . Weather information available at that time is displayed.

METAR/TAF

EUREKA/NU    

METAR CWEU 042200Z 23002KT 15SM FEW040 SCT080 BKN200 11/05 A3007 RMK SC2AS1CI0 SLP185=
METAR CWEU 042100Z 21004KT 15SM BKN040 BKN080 BKN200 09/04 A3008 RMK SC6AS1CI1 SLP187=
METAR CWEU 042000Z 20005KT 15SM FEW040 SCT080 BKN090 BKN200 11/05 A3009 RMK SC1AS2AC2CI0 SLP190=

TAF CYEU 041745Z 0418/0502 ADVISORY OFFSITE 16010KT P6SM FEW040
SCT080 TEMPO 0418/0502 SCT040 BKN080
RMK NXT FCST BY 050000Z=
Your time UTC time
Weather data provided by Environment Canada and NAV CANADA